KALX/ALX METAR and TAF weather

Enter ICAO airport designator
Station Type Date Time Source
KALX METAR 2018/10/21 03:55 UTC NOAA

KALX 210355Z AUTO 34006KT 10SM CLR 14/13 A3014 RMK AO2 T01430130


Station Type Date Time Source
KALX Decoded METAR 2018/10/21 03:55 UTC NOAA

Alexander City, Thomas C Russell Field Airport, AL, United States (KALX) 32-54-53N 085-57-46W
Oct 20, 2018 - 11:55 PM EDT / 2018.10.21 0355 UTC
Wind: from the NNW (340 degrees) at 7 MPH (6 KT):0
Visibility: 10 mile(s):0
Sky conditions: clear
Temperature: 57.7 F (14.3 C)
Dew Point: 55.4 F (13.0 C)
Relative Humidity: 91%
Pressure (altimeter): 30.14 in. Hg (1020 hPa)
ob: KALX 210355Z AUTO 34006KT 10SM CLR 14/13 A3014 RMK AO2 T01430130
cycle: 4

Station Type Date Time Source
KALX TAF UTC NOAA

Error!


Example: see airport list